Terminal Aerodrome Forecast
Issued by NWS

Home | Current Version | Previous Version | Text Only | Print | Product List | Glossary On
Versions: 1 2 3 4 5 6 7 8 9 10 11 12 13 14 15 16 17 18 19 20 21 22 23 24
000
FTUS43 KABR 280300 AAC
TAFMBG
TAF AMD
KMBG 280307Z 2803/2824 09008KT P6SM BKN025 OVC045
      TEMPO 2803/2805 SCT025
     FM280500 VRB05KT P6SM OVC015=

USA.gov is the U.S. government's official web portal to all federal, state and local government web resources and services.